Time;durP1;ratioP1;P1;durP2;ratioP2;P2;SDS_P1;SDS_P2;PMS_P1;PMS_P2;Temp;Humidity;BMP_temperature;BMP_pressure;BME280_temperature;BME280_humidity;BME280_pressure;Samples;Min_cycle;Max_cycle;Signal;HPM_P1;HPM_P2
2022/05/25 00:00:36;;;;;;;1.25;1.08;;;;;;;;;;5005980;28;20084;-71
2022/05/25 00:03:02;;;;;;;1.52;1.10;;;;;;;;;;5024948;28;20040;-70
2022/05/25 00:05:30;;;;;;;2.80;1.00;;;;;;;;;;5024491;28;20114;-71
2022/05/25 00:08:00;;;;;;;7.88;1.67;;;;;;;;;;5025173;28;20136;-69
2022/05/25 00:10:25;;;;;;;3.78;1.25;;;;;;;;;;5022742;28;20071;-71
2022/05/25 00:12:51;;;;;;;2.63;1.10;;;;;;;;;;5022756;28;20049;-70
2022/05/25 00:15:17;;;;;;;2.92;1.17;;;;;;;;;;5024748;28;20049;-69
2022/05/25 00:17:42;;;;;;;1.85;1.00;;;;;;;;;;5027381;28;20213;-68
2022/05/25 00:20:10;;;;;;;3.00;1.25;;;;;;;;;;5010789;28;22518;-69
2022/05/25 00:22:45;;;;;;;2.60;1.35;;;;;;;;;;5029112;28;20071;-69
2022/05/25 00:25:30;;;;;;;1.25;0.90;;;;;;;;;;5012063;28;20037;-69
2022/05/25 00:28:03;;;;;;;3.88;1.10;;;;;;;;;;5012072;28;20628;-69
2022/05/25 00:30:29;;;;;;;3.33;1.20;;;;;;;;;;5027737;28;20048;-71
2022/05/25 00:32:57;;;;;;;2.97;1.20;;;;;;;;;;5026641;28;20068;-70
2022/05/25 00:35:24;;;;;;;2.63;1.20;;;;;;;;;;5027407;28;20043;-70
2022/05/25 00:37:50;;;;;;;4.00;1.02;;;;;;;;;;5026483;28;20156;-71
2022/05/25 00:40:29;;;;;;;1.33;1.10;;;;;;;;;;5021049;28;20155;-70
2022/05/25 00:42:54;;;;;;;4.15;1.23;;;;;;;;;;5024447;28;20467;-69
2022/05/25 00:45:20;;;;;;;2.45;1.00;;;;;;;;;;5025116;28;20056;-69
2022/05/25 00:47:48;;;;;;;3.17;0.98;;;;;;;;;;5025309;28;20101;-70
2022/05/25 00:50:17;;;;;;;4.80;1.02;;;;;;;;;;5024913;28;20037;-69
2022/05/25 00:52:46;;;;;;;1.33;0.90;;;;;;;;;;5028013;28;20485;-71
2022/05/25 00:55:19;;;;;;;2.53;1.00;;;;;;;;;;5049903;28;20576;-70
2022/05/25 00:57:48;;;;;;;2.42;1.52;;;;;;;;;;5032145;28;20041;-71
2022/05/25 01:00:15;;;;;;;2.47;1.15;;;;;;;;;;5044356;28;20041;-70
2022/05/25 01:03:04;;;;;;;1.80;0.80;;;;;;;;;;5047812;28;20756;-70
2022/05/25 01:05:42;;;;;;;1.48;0.70;;;;;;;;;;5050665;28;20059;-70
2022/05/25 01:08:40;;;;;;;0.88;0.70;;;;;;;;;;5053129;28;20021;-70
2022/05/25 01:11:28;;;;;;;1.95;0.75;;;;;;;;;;5031533;28;20504;-71
2022/05/25 01:14:18;;;;;;;2.42;0.68;;;;;;;;;;5029262;28;20037;-71
2022/05/25 01:16:58;;;;;;;1.42;0.60;;;;;;;;;;5025035;28;20044;-70
2022/05/25 01:19:26;;;;;;;1.13;0.70;;;;;;;;;;5024059;28;20041;-70
2022/05/25 01:22:15;;;;;;;1.42;0.77;;;;;;;;;;5025669;28;20047;-70
2022/05/25 01:25:02;;;;;;;3.35;1.05;;;;;;;;;;5025064;28;20045;-69
2022/05/25 01:27:47;;;;;;;5.20;0.73;;;;;;;;;;5025424;28;20121;-69
2022/05/25 01:30:33;;;;;;;0.80;0.80;;;;;;;;;;5024982;28;20541;-68
2022/05/25 01:33:27;;;;;;;0.77;0.60;;;;;;;;;;5027070;28;21496;-68
2022/05/25 01:36:10;;;;;;;4.82;0.60;;;;;;;;;;5036312;28;20033;-70
2022/05/25 01:38:52;;;;;;;1.58;0.90;;;;;;;;;;5046542;28;20032;-69
2022/05/25 01:41:23;;;;;;;1.80;0.95;;;;;;;;;;5044127;28;20059;-71
2022/05/25 01:43:58;;;;;;;2.42;0.68;;;;;;;;;;5048131;28;20020;-71
2022/05/25 01:46:34;;;;;;;1.08;0.73;;;;;;;;;;5045333;28;20033;-70
2022/05/25 01:49:05;;;;;;;2.38;0.70;;;;;;;;;;5044632;28;20183;-70
2022/05/25 01:51:43;;;;;;;2.03;0.80;;;;;;;;;;5046045;28;20040;-70
2022/05/25 01:54:13;;;;;;;0.60;0.57;;;;;;;;;;5043377;28;20048;-69
2022/05/25 01:56:44;;;;;;;3.58;0.68;;;;;;;;;;5047269;28;20045;-71
2022/05/25 01:59:13;;;;;;;2.65;0.70;;;;;;;;;;5046560;28;20024;-70
2022/05/25 02:04:42;;;;;;;0.77;0.65;;;;;;;;;;5045203;28;20043;-70
2022/05/25 02:07:22;;;;;;;3.70;0.82;;;;;;;;;;5046473;28;20400;-70
2022/05/25 02:10:10;;;;;;;3.00;0.63;;;;;;;;;;5048356;28;20045;-71
2022/05/25 02:12:40;;;;;;;3.55;0.95;;;;;;;;;;5043747;28;20148;-71
2022/05/25 02:15:42;;;;;;;1.15;0.90;;;;;;;;;;5045174;28;20709;-70
2022/05/25 02:18:32;;;;;;;3.10;1.38;;;;;;;;;;5043378;28;20129;-70
2022/05/25 02:21:34;;;;;;;3.50;0.70;;;;;;;;;;5045075;28;20059;-70
2022/05/25 02:24:19;;;;;;;3.03;0.70;;;;;;;;;;5049310;28;20045;-70
2022/05/25 02:26:49;;;;;;;4.72;0.85;;;;;;;;;;5045529;28;20036;-70
2022/05/25 02:29:23;;;;;;;2.72;0.60;;;;;;;;;;5041958;28;20032;-70
2022/05/25 02:31:54;;;;;;;1.88;0.60;;;;;;;;;;5042609;28;20048;-71
2022/05/25 02:34:22;;;;;;;1.05;0.57;;;;;;;;;;5043493;28;20045;-69
2022/05/25 02:36:49;;;;;;;5.82;0.82;;;;;;;;;;5047660;28;20037;-71
2022/05/25 02:39:15;;;;;;;2.60;0.70;;;;;;;;;;5044948;28;20051;-70
2022/05/25 02:41:54;;;;;;;4.43;0.80;;;;;;;;;;5040038;28;20100;-70
2022/05/25 02:44:20;;;;;;;1.65;0.73;;;;;;;;;;5042920;28;20393;-69
2022/05/25 02:46:47;;;;;;;1.58;0.75;;;;;;;;;;5044838;28;20028;-69
2022/05/25 02:49:13;;;;;;;1.55;0.68;;;;;;;;;;5048124;28;20041;-70
2022/05/25 02:51:39;;;;;;;2.15;0.90;;;;;;;;;;5043299;28;20080;-71
2022/05/25 02:54:06;;;;;;;1.45;0.75;;;;;;;;;;5046620;28;20075;-70
2022/05/25 02:56:32;;;;;;;2.17;1.10;;;;;;;;;;5046624;28;20060;-70
2022/05/25 02:58:58;;;;;;;2.15;0.90;;;;;;;;;;5046325;28;20056;-71
2022/05/25 03:01:24;;;;;;;1.92;1.00;;;;;;;;;;5043172;28;20049;-71
2022/05/25 03:03:49;;;;;;;3.45;0.90;;;;;;;;;;5045080;28;20036;-71
2022/05/25 03:06:15;;;;;;;1.00;0.90;;;;;;;;;;5048960;28;20037;-70
2022/05/25 03:08:41;;;;;;;1.90;0.68;;;;;;;;;;5030394;28;20136;-71
2022/05/25 03:11:07;;;;;;;4.10;1.10;;;;;;;;;;5045589;28;20430;-71
2022/05/25 03:13:33;;;;;;;1.38;0.70;;;;;;;;;;5033594;28;20045;-70
2022/05/25 03:16:04;;;;;;;1.40;1.00;;;;;;;;;;5023507;28;20068;-70
2022/05/25 03:18:29;;;;;;;1.13;0.70;;;;;;;;;;5022684;28;20505;-70
2022/05/25 03:20:55;;;;;;;4.70;1.08;;;;;;;;;;5021307;28;20056;-70
2022/05/25 03:23:20;;;;;;;1.02;0.75;;;;;;;;;;5020873;28;20169;-69
2022/05/25 03:25:47;;;;;;;3.40;0.70;;;;;;;;;;5025633;28;20048;-70
2022/05/25 03:28:13;;;;;;;2.85;1.58;;;;;;;;;;5022532;28;20041;-69
2022/05/25 03:30:41;;;;;;;1.75;1.00;;;;;;;;;;5022098;28;20037;-70
2022/05/25 03:33:06;;;;;;;1.52;0.95;;;;;;;;;;5023626;28;20132;-69
2022/05/25 03:35:32;;;;;;;2.45;0.90;;;;;;;;;;5021079;28;20035;-69
2022/05/25 03:37:58;;;;;;;3.22;0.82;;;;;;;;;;5025161;28;20047;-69
2022/05/25 03:40:24;;;;;;;2.85;1.00;;;;;;;;;;5022557;28;20177;-70
2022/05/25 03:42:49;;;;;;;4.00;1.10;;;;;;;;;;5004551;28;20041;-68
2022/05/25 03:45:15;;;;;;;4.20;0.90;;;;;;;;;;5020679;28;20037;-71
2022/05/25 03:47:41;;;;;;;1.15;0.90;;;;;;;;;;5022160;28;20037;-70
2022/05/25 03:50:08;;;;;;;3.70;0.82;;;;;;;;;;5006844;28;20519;-70
2022/05/25 03:52:34;;;;;;;2.92;0.90;;;;;;;;;;5024394;28;22514;-69
2022/05/25 03:55:01;;;;;;;2.75;0.80;;;;;;;;;;5024982;28;20044;-70
2022/05/25 03:57:27;;;;;;;4.53;0.90;;;;;;;;;;5028817;28;20083;-72
2022/05/25 03:59:53;;;;;;;1.70;1.10;;;;;;;;;;5010848;28;20036;-70
2022/05/25 04:02:18;;;;;;;2.35;0.95;;;;;;;;;;5027624;28;20119;-68
2022/05/25 04:04:44;;;;;;;3.53;0.98;;;;;;;;;;5007845;28;20037;-68
2022/05/25 04:07:10;;;;;;;1.92;0.95;;;;;;;;;;5024897;28;20040;-68
2022/05/25 04:09:36;;;;;;;4.70;0.95;;;;;;;;;;5027088;28;20078;-70
2022/05/25 04:12:02;;;;;;;4.03;0.82;;;;;;;;;;5026057;28;20040;-69
2022/05/25 04:14:27;;;;;;;1.80;1.05;;;;;;;;;;5026993;28;20097;-71
2022/05/25 04:16:53;;;;;;;0.80;0.80;;;;;;;;;;5024932;28;21472;-68
2022/05/25 04:19:18;;;;;;;1.95;0.80;;;;;;;;;;5027664;28;20033;-68
2022/05/25 04:21:44;;;;;;;2.97;0.90;;;;;;;;;;5021027;28;20340;-70
2022/05/25 04:24:12;;;;;;;4.90;1.20;;;;;;;;;;5026365;28;20041;-70
2022/05/25 04:26:38;;;;;;;2.90;1.25;;;;;;;;;;5043119;28;20040;-70
2022/05/25 04:29:03;;;;;;;2.10;0.90;;;;;;;;;;5052163;28;20048;-69
2022/05/25 04:31:28;;;;;;;3.35;1.00;;;;;;;;;;5045654;28;21606;-69
2022/05/25 04:33:54;;;;;;;1.25;1.05;;;;;;;;;;5048257;28;21429;-68
2022/05/25 04:36:20;;;;;;;2.60;1.23;;;;;;;;;;5049192;28;20044;-70
2022/05/25 04:38:46;;;;;;;3.15;0.80;;;;;;;;;;5031031;28;20400;-70
2022/05/25 04:41:12;;;;;;;1.95;0.90;;;;;;;;;;5047983;28;20528;-68
2022/05/25 04:43:38;;;;;;;3.13;1.20;;;;;;;;;;5037882;28;20102;-70
2022/05/25 04:46:08;;;;;;;3.50;1.25;;;;;;;;;;5043234;28;20513;-68
2022/05/25 04:48:34;;;;;;;5.80;1.20;;;;;;;;;;5041135;28;20393;-68
2022/05/25 04:51:00;;;;;;;2.40;0.95;;;;;;;;;;5049351;28;20041;-70
2022/05/25 04:53:26;;;;;;;2.15;1.10;;;;;;;;;;5047194;28;20052;-70
2022/05/25 04:58:42;;;;;;;1.55;1.20;;;;;;;;;;5046410;28;20336;-71
2022/05/25 05:01:09;;;;;;;2.75;1.13;;;;;;;;;;5045194;28;20037;-70
2022/05/25 05:03:36;;;;;;;4.28;1.13;;;;;;;;;;5044472;28;20041;-69
2022/05/25 05:06:02;;;;;;;3.33;1.20;;;;;;;;;;5045788;28;20041;-68
2022/05/25 05:08:31;;;;;;;2.35;1.30;;;;;;;;;;5049166;28;20750;-70
2022/05/25 05:10:57;;;;;;;6.22;1.60;;;;;;;;;;5049314;28;20417;-70
2022/05/25 05:13:23;;;;;;;2.95;1.30;;;;;;;;;;5050098;28;20052;-69
2022/05/25 05:15:51;;;;;;;2.05;1.10;;;;;;;;;;5044020;28;20141;-70
2022/05/25 05:18:18;;;;;;;7.07;1.40;;;;;;;;;;5045396;28;20108;-72
2022/05/25 05:20:44;;;;;;;2.17;1.10;;;;;;;;;;5043890;28;20045;-68
2022/05/25 05:23:11;;;;;;;2.70;1.33;;;;;;;;;;5028759;28;20032;-71
2022/05/25 05:25:36;;;;;;;2.92;1.25;;;;;;;;;;5032340;28;20041;-70
2022/05/25 05:28:32;;;;;;;2.17;1.60;;;;;;;;;;5045645;28;20063;-72
2022/05/25 05:30:59;;;;;;;2.83;1.25;;;;;;;;;;5043507;28;20042;-70
2022/05/25 05:33:26;;;;;;;3.10;1.48;;;;;;;;;;5044803;28;20504;-69
2022/05/25 05:36:18;;;;;;;4.72;1.27;;;;;;;;;;5046147;28;20432;-69
2022/05/25 05:38:49;;;;;;;2.53;1.40;;;;;;;;;;5033409;28;20063;-68
2022/05/25 05:41:18;;;;;;;2.63;1.48;;;;;;;;;;5045024;28;20056;-69
2022/05/25 05:43:44;;;;;;;2.97;1.10;;;;;;;;;;5045146;28;20510;-69
2022/05/25 05:46:11;;;;;;;4.47;1.40;;;;;;;;;;5050991;28;20029;-68
2022/05/25 05:48:38;;;;;;;4.78;1.40;;;;;;;;;;5045363;28;20077;-68
2022/05/25 05:51:04;;;;;;;7.25;1.40;;;;;;;;;;5044538;28;20433;-71
2022/05/25 05:53:30;;;;;;;3.95;1.02;;;;;;;;;;5047656;28;20024;-70
2022/05/25 05:55:57;;;;;;;4.05;1.48;;;;;;;;;;5051414;28;20116;-70
2022/05/25 05:58:23;;;;;;;1.52;1.23;;;;;;;;;;5050372;28;20040;-70
2022/05/25 06:00:48;;;;;;;2.13;1.60;;;;;;;;;;5029647;28;20381;-71
2022/05/25 06:03:15;;;;;;;2.75;1.30;;;;;;;;;;5047129;28;20463;-71
2022/05/25 06:05:41;;;;;;;2.97;1.40;;;;;;;;;;5048965;28;20029;-69
2022/05/25 06:08:12;;;;;;;2.78;1.23;;;;;;;;;;5035228;28;20036;-70
2022/05/25 06:10:39;;;;;;;2.45;1.15;;;;;;;;;;5048169;28;20039;-69
2022/05/25 06:13:07;;;;;;;3.15;1.20;;;;;;;;;;5044279;28;20071;-71
2022/05/25 06:21:01;;;;;;;3.35;1.30;;;;;;;;;;5049802;28;20044;-71
2022/05/25 06:23:26;;;;;;;4.03;1.27;;;;;;;;;;5048928;28;20037;-69
2022/05/25 06:25:52;;;;;;;1.95;0.90;;;;;;;;;;5049116;28;20028;-70
2022/05/25 06:28:17;;;;;;;2.88;1.23;;;;;;;;;;5049395;28;20151;-69
2022/05/25 06:30:42;;;;;;;1.95;1.25;;;;;;;;;;5047688;28;20033;-70
2022/05/25 06:33:08;;;;;;;2.53;1.58;;;;;;;;;;5051324;28;20524;-71
2022/05/25 06:35:34;;;;;;;3.28;1.10;;;;;;;;;;5030844;28;20049;-68
2022/05/25 06:38:00;;;;;;;4.40;1.13;;;;;;;;;;5048315;28;20035;-69
2022/05/25 06:40:25;;;;;;;2.45;1.20;;;;;;;;;;5049512;28;20033;-70
2022/05/25 06:42:51;;;;;;;3.15;1.17;;;;;;;;;;5048897;28;20040;-69
2022/05/25 06:45:17;;;;;;;1.35;0.88;;;;;;;;;;5047272;28;20457;-69
2022/05/25 06:47:43;;;;;;;6.00;1.02;;;;;;;;;;5049679;28;20059;-70
2022/05/25 06:50:09;;;;;;;2.70;0.82;;;;;;;;;;5049205;28;20032;-69
2022/05/25 06:52:34;;;;;;;1.98;0.98;;;;;;;;;;5050530;28;20527;-70
2022/05/25 06:55:00;;;;;;;4.03;1.05;;;;;;;;;;5042683;28;20116;-69
2022/05/25 06:57:25;;;;;;;2.63;0.85;;;;;;;;;;5047258;28;20072;-70
2022/05/25 06:59:51;;;;;;;2.17;0.93;;;;;;;;;;5047830;28;20048;-70
2022/05/25 07:02:17;;;;;;;3.33;1.25;;;;;;;;;;5049166;28;20057;-69
2022/05/25 07:04:42;;;;;;;2.00;0.75;;;;;;;;;;5050414;28;20056;-70
2022/05/25 07:07:08;;;;;;;4.40;1.00;;;;;;;;;;5046444;28;20068;-69
2022/05/25 07:09:34;;;;;;;4.05;0.73;;;;;;;;;;5047513;28;20037;-70
2022/05/25 07:12:01;;;;;;;5.10;1.38;;;;;;;;;;5049641;28;20045;-66
2022/05/25 07:14:27;;;;;;;1.70;0.80;;;;;;;;;;5045964;28;20048;-70
2022/05/25 07:16:54;;;;;;;1.70;0.70;;;;;;;;;;5047619;28;20064;-69
2022/05/25 07:19:20;;;;;;;2.47;0.70;;;;;;;;;;5049499;28;20036;-67
2022/05/25 07:21:45;;;;;;;2.35;0.93;;;;;;;;;;5045992;28;20041;-70
2022/05/25 07:24:10;;;;;;;1.58;0.73;;;;;;;;;;5045728;28;20385;-69
2022/05/25 07:26:36;;;;;;;4.68;0.98;;;;;;;;;;5046805;28;20102;-69
2022/05/25 07:29:03;;;;;;;3.03;1.20;;;;;;;;;;5047266;28;20033;-68
2022/05/25 07:31:37;;;;;;;2.53;1.05;;;;;;;;;;5049990;28;20515;-68
2022/05/25 07:34:08;;;;;;;2.83;0.60;;;;;;;;;;5050713;28;20082;-70
2022/05/25 07:36:35;;;;;;;1.65;1.02;;;;;;;;;;5049838;28;20033;-69
2022/05/25 07:39:04;;;;;;;1.70;0.50;;;;;;;;;;5047077;28;20116;-69
2022/05/25 07:41:31;;;;;;;1.85;0.50;;;;;;;;;;5049896;28;20055;-69
2022/05/25 07:43:57;;;;;;;2.00;0.60;;;;;;;;;;5050186;28;20021;-69
2022/05/25 07:46:29;;;;;;;1.17;0.55;;;;;;;;;;5052356;28;20076;-68
2022/05/25 07:48:55;;;;;;;1.70;0.63;;;;;;;;;;5034239;28;20632;-68
2022/05/25 07:51:20;;;;;;;1.15;0.65;;;;;;;;;;5051805;28;20060;-68
2022/05/25 07:53:58;;;;;;;2.42;0.63;;;;;;;;;;5053922;28;20067;-69
2022/05/25 07:56:34;;;;;;;1.58;0.40;;;;;;;;;;5050600;28;20029;-70
2022/05/25 07:59:06;;;;;;;2.90;0.82;;;;;;;;;;5050723;28;20017;-70
2022/05/25 08:07:10;;;;;;;0.65;0.45;;;;;;;;;;5049604;28;21778;-70
2022/05/25 08:09:36;;;;;;;1.05;0.60;;;;;;;;;;5047543;28;20128;-70
2022/05/25 08:12:05;;;;;;;2.92;0.80;;;;;;;;;;5044356;28;20045;-69
2022/05/25 08:14:31;;;;;;;1.25;0.70;;;;;;;;;;5049763;28;20032;-69
2022/05/25 08:16:57;;;;;;;1.58;0.70;;;;;;;;;;5052412;28;20021;-69
2022/05/25 08:19:23;;;;;;;0.90;0.50;;;;;;;;;;5051479;28;20083;-69
2022/05/25 08:21:49;;;;;;;1.30;0.50;;;;;;;;;;5049634;28;20049;-68
2022/05/25 08:24:15;;;;;;;1.83;0.60;;;;;;;;;;5032650;28;20033;-69
2022/05/25 08:26:41;;;;;;;2.00;0.70;;;;;;;;;;5045918;28;20100;-69
2022/05/25 08:29:06;;;;;;;2.00;0.50;;;;;;;;;;5045589;28;20036;-70
2022/05/25 08:31:32;;;;;;;1.13;0.60;;;;;;;;;;5048084;28;20033;-68
2022/05/25 08:33:58;;;;;;;1.85;0.60;;;;;;;;;;5047605;28;20031;-68
2022/05/25 08:36:23;;;;;;;2.05;0.52;;;;;;;;;;5051875;28;20501;-70
2022/05/25 08:38:49;;;;;;;2.90;0.38;;;;;;;;;;5047448;28;20153;-70
2022/05/25 08:41:14;;;;;;;2.40;0.55;;;;;;;;;;5048464;28;20052;-70
2022/05/25 08:43:47;;;;;;;1.30;0.50;;;;;;;;;;5033224;28;20080;-70
2022/05/25 08:46:18;;;;;;;1.35;0.60;;;;;;;;;;5052211;28;20443;-69
2022/05/25 08:48:44;;;;;;;0.75;0.60;;;;;;;;;;5049600;28;20068;-69
2022/05/25 08:51:13;;;;;;;2.35;0.52;;;;;;;;;;5047786;28;20455;-69
2022/05/25 08:53:39;;;;;;;2.47;0.50;;;;;;;;;;5050590;28;20033;-69
2022/05/25 08:56:27;;;;;;;12.70;1.02;;;;;;;;;;5048073;28;20044;-69
2022/05/25 08:58:59;;;;;;;1.38;0.30;;;;;;;;;;5031959;28;20398;-70
2022/05/25 09:01:50;;;;;;;0.60;0.40;;;;;;;;;;5034679;28;20750;-69
2022/05/25 09:04:21;;;;;;;3.53;0.70;;;;;;;;;;5013204;28;20030;-69
2022/05/25 09:06:56;;;;;;;1.67;0.50;;;;;;;;;;5027701;28;20375;-69
2022/05/25 09:09:30;;;;;;;1.55;0.40;;;;;;;;;;5028145;28;20052;-69
2022/05/25 09:12:01;;;;;;;1.10;0.40;;;;;;;;;;5025625;28;20128;-70
2022/05/25 09:14:39;;;;;;;3.43;0.50;;;;;;;;;;5025242;28;20029;-67
2022/05/25 09:17:13;;;;;;;0.88;0.30;;;;;;;;;;5011872;28;20064;-69
2022/05/25 09:19:44;;;;;;;1.40;0.30;;;;;;;;;;5029636;28;20026;-70
2022/05/25 09:22:16;;;;;;;3.83;0.60;;;;;;;;;;5015341;28;20033;-69
2022/05/25 09:24:42;;;;;;;1.52;0.40;;;;;;;;;;5026831;28;20037;-68
2022/05/25 09:27:09;;;;;;;2.05;0.85;;;;;;;;;;5009943;28;20041;-71
2022/05/25 09:29:34;;;;;;;1.15;0.40;;;;;;;;;;5031860;28;20473;-69
2022/05/25 09:32:30;;;;;;;0.75;0.40;;;;;;;;;;5029529;28;20067;-69
2022/05/25 09:35:10;;;;;;;1.65;0.55;;;;;;;;;;5047982;28;20400;-69
2022/05/25 09:37:49;;;;;;;1.38;0.32;;;;;;;;;;5028961;28;20045;-69
2022/05/25 09:40:21;;;;;;;2.72;0.28;;;;;;;;;;5026456;28;20046;-69
2022/05/25 09:42:57;;;;;;;2.72;0.30;;;;;;;;;;5030163;28;20500;-69
2022/05/25 09:45:24;;;;;;;1.73;0.35;;;;;;;;;;5029414;28;20040;-69
2022/05/25 09:47:52;;;;;;;2.35;0.77;;;;;;;;;;5030614;28;20405;-69
2022/05/25 09:50:24;;;;;;;0.60;0.20;;;;;;;;;;5028458;28;20765;-70
2022/05/25 09:52:52;;;;;;;2.20;0.70;;;;;;;;;;5027785;28;20451;-70
2022/05/25 09:55:29;;;;;;;0.52;0.20;;;;;;;;;;5024294;28;20042;-69
2022/05/25 09:58:01;;;;;;;3.33;0.43;;;;;;;;;;5029497;28;20045;-69
2022/05/25 10:00:32;;;;;;;4.57;0.40;;;;;;;;;;5028890;28;20053;-69
2022/05/25 10:03:01;;;;;;;2.78;0.30;;;;;;;;;;5028163;28;20099;-69
2022/05/25 10:05:34;;;;;;;1.10;0.30;;;;;;;;;;5024758;28;20112;-69
2022/05/25 10:08:15;;;;;;;1.00;0.30;;;;;;;;;;5024848;28;20030;-69
2022/05/25 10:10:56;;;;;;;3.28;0.50;;;;;;;;;;5032106;28;20033;-69
2022/05/25 10:13:29;;;;;;;1.60;0.35;;;;;;;;;;5029580;28;20037;-69
2022/05/25 10:15:55;;;;;;;1.95;0.40;;;;;;;;;;5008465;28;20049;-68
2022/05/25 10:18:36;;;;;;;5.82;0.40;;;;;;;;;;5029709;28;20091;-69
2022/05/25 10:21:03;;;;;;;2.00;0.52;;;;;;;;;;5036476;28;20061;-69
2022/05/25 10:23:29;;;;;;;2.17;0.47;;;;;;;;;;5025512;28;20025;-70
2022/05/25 10:25:56;;;;;;;3.83;0.65;;;;;;;;;;5020699;28;20039;-70
2022/05/25 10:28:28;;;;;;;1.85;0.20;;;;;;;;;;5025118;28;20042;-70
2022/05/25 10:37:00;;;;;;;2.50;0.20;;;;;;;;;;5021232;28;20781;-69
2022/05/25 10:39:29;;;;;;;2.22;0.40;;;;;;;;;;5026220;28;20064;-71
2022/05/25 10:42:18;;;;;;;0.82;0.30;;;;;;;;;;5026208;28;20041;-70
2022/05/25 10:45:07;;;;;;;1.98;0.55;;;;;;;;;;5027235;28;20037;-69
2022/05/25 10:47:45;;;;;;;1.73;1.00;;;;;;;;;;5009624;28;20033;-70
2022/05/25 10:50:40;;;;;;;1.38;0.30;;;;;;;;;;5023011;28;20473;-70
2022/05/25 10:53:29;;;;;;;3.47;0.40;;;;;;;;;;5000594;28;20068;-70
2022/05/25 10:56:22;;;;;;;1.45;0.60;;;;;;;;;;5026478;28;20547;-69
2022/05/25 10:58:48;;;;;;;;;;;;;;;;;;5030945;28;20077;-67
2022/05/25 11:01:25;;;;;;;1.00;0.30;;;;;;;;;;5028326;28;19952;-69
2022/05/25 11:04:10;;;;;;;2.55;0.40;;;;;;;;;;5024960;28;20527;-69
2022/05/25 11:07:06;;;;;;;1.08;0.40;;;;;;;;;;5027982;28;20037;-70
2022/05/25 11:09:57;;;;;;;1.08;0.40;;;;;;;;;;5024059;28;20041;-69
2022/05/25 11:12:24;;;;;;;1.10;0.30;;;;;;;;;;5030149;28;20509;-67
2022/05/25 11:15:13;;;;;;;1.05;0.28;;;;;;;;;;5042173;28;20128;-70
2022/05/25 11:18:04;;;;;;;0.57;0.30;;;;;;;;;;5020470;28;20049;-69
2022/05/25 11:20:42;;;;;;;0.60;0.30;;;;;;;;;;5024716;28;20037;-70
2022/05/25 11:23:27;;;;;;;0.80;0.20;;;;;;;;;;5021514;28;20114;-70
2022/05/25 11:26:02;;;;;;;0.88;0.30;;;;;;;;;;5025602;28;20497;-70
2022/05/25 11:28:49;;;;;;;1.15;0.50;;;;;;;;;;5018256;28;20041;-70
2022/05/25 11:31:40;;;;;;;0.88;0.25;;;;;;;;;;5026947;28;20041;-71
2022/05/25 11:34:36;;;;;;;0.90;0.30;;;;;;;;;;5025384;28;20029;-70
2022/05/25 11:37:25;;;;;;;0.20;0.20;;;;;;;;;;5024739;28;20040;-67
2022/05/25 11:40:04;;;;;;;1.30;0.60;;;;;;;;;;5020900;28;20635;-68
2022/05/25 11:42:39;;;;;;;0.95;0.38;;;;;;;;;;5028257;28;20511;-69
2022/05/25 11:45:50;;;;;;;1.48;0.20;;;;;;;;;;5028240;28;20068;-70
2022/05/25 11:48:53;;;;;;;1.85;0.50;;;;;;;;;;5007299;28;20033;-69
2022/05/25 11:51:28;;;;;;;1.48;0.30;;;;;;;;;;5025723;28;20052;-70
2022/05/25 11:54:01;;;;;;;2.25;0.60;;;;;;;;;;5026014;28;20168;-70
2022/05/25 11:56:45;;;;;;;2.72;0.40;;;;;;;;;;5028982;28;20038;-69
2022/05/25 11:59:27;;;;;;;0.52;0.25;;;;;;;;;;5026152;28;20488;-69
2022/05/25 12:02:06;;;;;;;0.93;0.40;;;;;;;;;;5023940;28;20091;-69
2022/05/25 12:04:40;;;;;;;0.73;0.40;;;;;;;;;;5027466;28;20119;-69
2022/05/25 12:07:35;;;;;;;3.30;0.43;;;;;;;;;;5027364;28;20037;-69
2022/05/25 12:10:18;;;;;;;0.38;0.20;;;;;;;;;;5021078;28;20417;-70
2022/05/25 12:12:53;;;;;;;0.90;0.40;;;;;;;;;;5027907;28;20505;-68
2022/05/25 12:15:58;;;;;;;2.17;0.50;;;;;;;;;;5039827;28;20041;-70
2022/05/25 12:18:39;;;;;;;0.90;0.25;;;;;;;;;;5030376;28;20152;-68
2022/05/25 12:21:13;;;;;;;2.03;0.38;;;;;;;;;;5029304;28;20038;-70
2022/05/25 12:23:49;;;;;;;1.77;0.50;;;;;;;;;;5030752;28;20096;-69
2022/05/25 12:26:32;;;;;;;0.95;0.50;;;;;;;;;;5044382;28;20041;-69
2022/05/25 12:29:36;;;;;;;5.38;0.60;;;;;;;;;;5028176;28;20084;-70
2022/05/25 12:32:02;;;;;;;1.17;0.40;;;;;;;;;;5022161;28;20044;-70
2022/05/25 12:34:46;;;;;;;0.30;0.22;;;;;;;;;;5027052;28;20050;-69
2022/05/25 12:37:15;;;;;;;1.55;0.43;;;;;;;;;;5027949;28;20034;-69
2022/05/25 12:40:04;;;;;;;1.98;0.45;;;;;;;;;;5027554;28;20033;-69
2022/05/25 12:42:33;;;;;;;0.60;0.40;;;;;;;;;;5042172;28;20041;-69
2022/05/25 12:51:28;;;;;;;0.55;0.30;;;;;;;;;;5027245;28;20512;-70
2022/05/25 12:53:53;;;;;;;0.40;0.20;;;;;;;;;;5021125;28;20049;-69
2022/05/25 12:56:19;;;;;;;5.20;0.40;;;;;;;;;;5025227;28;20038;-71
2022/05/25 12:58:54;;;;;;;1.98;0.28;;;;;;;;;;5022325;28;20717;-69
2022/05/25 13:01:22;;;;;;;0.90;0.32;;;;;;;;;;5027011;28;20481;-69
2022/05/25 13:03:47;;;;;;;0.38;0.20;;;;;;;;;;5028339;28;20117;-69
2022/05/25 13:06:18;;;;;;;1.35;0.40;;;;;;;;;;5031624;28;20132;-69
2022/05/25 13:08:49;;;;;;;1.17;0.30;;;;;;;;;;5028845;28;20432;-68
2022/05/25 13:11:29;;;;;;;0.45;0.20;;;;;;;;;;5025434;28;20045;-69
2022/05/25 13:13:55;;;;;;;0.70;0.30;;;;;;;;;;5030393;28;20148;-69
2022/05/25 13:16:40;;;;;;;2.25;1.10;;;;;;;;;;5034065;28;20072;-68
2022/05/25 13:19:37;;;;;;;3.65;0.52;;;;;;;;;;5028700;28;20063;-69
2022/05/25 13:22:02;;;;;;;0.35;0.28;;;;;;;;;;5032226;28;20029;-68
2022/05/25 13:25:05;;;;;;;3.05;0.47;;;;;;;;;;5028103;28;20052;-69
2022/05/25 13:27:53;;;;;;;0.20;0.20;;;;;;;;;;5027585;28;20444;-69
2022/05/25 13:30:39;;;;;;;0.55;0.30;;;;;;;;;;5026558;28;20037;-69
2022/05/25 13:33:20;;;;;;;2.75;0.40;;;;;;;;;;5029044;28;20089;-69
2022/05/25 13:35:53;;;;;;;0.82;0.38;;;;;;;;;;5029325;28;20049;-68
2022/05/25 13:38:30;;;;;;;1.23;0.50;;;;;;;;;;5029238;28;20544;-68
2022/05/25 13:57:51;;;;;;;0.68;0.40;;;;;;;;;;5007751;28;20096;-70
2022/05/25 14:00:28;;;;;;;2.58;0.28;;;;;;;;;;5008574;28;20033;-69
2022/05/25 14:02:58;;;;;;;1.42;0.40;;;;;;;;;;5008963;28;20105;-69
2022/05/25 14:05:27;;;;;;;1.10;0.43;;;;;;;;;;5015212;28;20045;-70
2022/05/25 14:08:05;;;;;;;3.05;0.60;;;;;;;;;;5004442;28;20644;-70
2022/05/25 14:13:21;;;;;;;0.85;0.30;;;;;;;;;;5006805;28;20611;-70
2022/05/25 14:16:14;;;;;;;1.90;0.22;;;;;;;;;;5006268;28;20104;-70
2022/05/25 14:18:50;;;;;;;2.67;0.40;;;;;;;;;;4967999;28;20076;-71
2022/05/25 14:21:30;;;;;;;0.82;0.50;;;;;;;;;;5005466;28;20045;-70
2022/05/25 14:23:57;;;;;;;1.63;0.30;;;;;;;;;;5005061;28;20119;-71
2022/05/25 14:26:26;;;;;;;0.85;0.30;;;;;;;;;;5008936;28;20477;-70
2022/05/25 14:28:52;;;;;;;1.80;0.45;;;;;;;;;;5008965;28;20030;-70
2022/05/25 14:31:22;;;;;;;3.78;1.02;;;;;;;;;;5008001;28;20045;-70
2022/05/25 14:34:00;;;;;;;0.80;0.60;;;;;;;;;;5009337;28;20029;-69
2022/05/25 14:36:26;;;;;;;1.77;0.50;;;;;;;;;;4993397;28;20032;-70
2022/05/25 14:38:51;;;;;;;1.08;0.40;;;;;;;;;;5006121;28;20030;-70
2022/05/25 14:41:21;;;;;;;1.73;0.40;;;;;;;;;;5006808;28;20033;-69
2022/05/25 14:43:47;;;;;;;0.40;0.30;;;;;;;;;;5005610;28;20030;-68
2022/05/25 14:46:18;;;;;;;2.10;0.43;;;;;;;;;;5007105;28;20026;-69
2022/05/25 14:48:46;;;;;;;1.23;0.40;;;;;;;;;;5010177;28;20474;-68
2022/05/25 14:51:16;;;;;;;2.25;0.52;;;;;;;;;;5004406;28;20060;-69
2022/05/25 14:53:42;;;;;;;2.72;0.60;;;;;;;;;;5006266;28;20038;-69
2022/05/25 14:56:21;;;;;;;0.80;0.40;;;;;;;;;;5003668;28;20477;-69
2022/05/25 14:58:50;;;;;;;0.30;0.30;;;;;;;;;;5001163;28;20035;-69
2022/05/25 15:01:18;;;;;;;1.58;0.50;;;;;;;;;;5004961;28;20105;-69
2022/05/25 15:03:58;;;;;;;1.10;0.63;;;;;;;;;;5004652;28;20477;-68
2022/05/25 15:06:27;;;;;;;2.60;0.50;;;;;;;;;;5004968;28;20041;-69
2022/05/25 15:08:52;;;;;;;2.65;0.50;;;;;;;;;;5006605;28;20208;-69
2022/05/25 15:11:42;;;;;;;2.23;0.60;;;;;;;;;;5004486;28;20038;-69
2022/05/25 15:20:11;;;;;;;;;;;;;;;;;;5006791;28;20736;-67
2022/05/25 15:23:00;;;;;;;0.47;0.40;;;;;;;;;;5007666;28;19921;-69
2022/05/25 15:25:37;;;;;;;0.30;0.20;;;;;;;;;;5006407;28;20054;-69
2022/05/25 15:28:07;;;;;;;0.40;0.35;;;;;;;;;;5003844;28;20085;-69
2022/05/25 15:30:55;;;;;;;1.10;0.47;;;;;;;;;;5005183;28;20038;-69
2022/05/25 15:33:23;;;;;;;2.42;0.50;;;;;;;;;;5004125;28;20092;-69
2022/05/25 15:35:52;;;;;;;0.60;0.40;;;;;;;;;;5003601;28;20069;-69
2022/05/25 15:38:24;;;;;;;3.72;0.60;;;;;;;;;;5007786;28;20042;-68
2022/05/25 15:40:50;;;;;;;2.10;0.65;;;;;;;;;;5008765;28;20034;-69
2022/05/25 15:43:16;;;;;;;0.75;0.28;;;;;;;;;;5003027;28;20021;-69
2022/05/25 15:45:42;;;;;;;0.93;0.30;;;;;;;;;;5008121;28;20021;-69
2022/05/25 15:48:12;;;;;;;2.58;0.57;;;;;;;;;;5006512;28;20042;-69
2022/05/25 15:50:40;;;;;;;1.38;0.55;;;;;;;;;;5012394;28;20040;-69
2022/05/25 15:53:07;;;;;;;2.97;0.47;;;;;;;;;;5010954;28;20103;-69
2022/05/25 15:55:34;;;;;;;0.60;0.40;;;;;;;;;;5011355;28;20141;-69
2022/05/25 15:57:59;;;;;;;2.45;0.60;;;;;;;;;;5009867;28;20479;-68
2022/05/25 16:00:24;;;;;;;1.23;0.50;;;;;;;;;;5008130;28;20157;-69
2022/05/25 16:02:52;;;;;;;3.92;0.40;;;;;;;;;;5011420;28;20045;-68
2022/05/25 16:05:20;;;;;;;0.88;0.30;;;;;;;;;;5011124;28;20551;-70
2022/05/25 16:10:30;;;;;;;0.75;0.47;;;;;;;;;;5013401;28;20192;-69